Time;durP1;ratioP1;P1;durP2;ratioP2;P2;SDS_P1;SDS_P2;PMS_P1;PMS_P2;Temp;Humidity;BMP_temperature;BMP_pressure;BME280_temperature;BME280_humidity;BME280_pressure;Samples;Min_cycle;Max_cycle;Signal;HPM_P1;HPM_P2
2022/12/17 13:06:41;;;;;;;4.77;1.20;;;15.90;99.90;;;;;;5051358;28;20488;-85
2022/12/17 13:09:17;;;;;;;4.25;1.20;;;15.90;99.90;;;;;;5038669;28;20499;-82
2022/12/17 13:11:49;;;;;;;3.17;1.10;;;15.90;99.90;;;;;;5051171;28;20441;-82
2022/12/17 13:14:30;;;;;;;3.83;1.10;;;15.90;99.90;;;;;;5051262;28;20504;-85
2022/12/17 13:17:03;;;;;;;2.72;1.00;;;15.90;99.90;;;;;;5050799;28;20380;-86
2022/12/17 13:19:43;;;;;;;3.27;1.00;;;15.90;99.90;;;;;;5049203;28;20879;-84
2022/12/17 13:22:32;;;;;;;9.77;4.43;;;15.90;99.90;;;;;;5038990;28;20485;-84
2022/12/17 13:25:20;;;;;;;5.32;2.35;;;15.90;99.90;;;;;;5050759;28;20471;-84
2022/12/17 13:27:48;;;;;;;4.38;1.20;;;15.90;99.90;;;;;;5051072;28;20465;-86
2022/12/17 13:30:22;;;;;;;3.75;1.02;;;15.90;99.90;;;;;;5051005;28;20446;-87
2022/12/17 13:33:07;;;;;;;3.83;1.10;;;15.90;99.90;;;;;;5032183;28;20752;-87
2022/12/17 13:35:53;;;;;;;5.10;1.10;;;15.80;99.90;;;;;;5050650;28;20408;-88
2022/12/17 13:38:56;;;;;;;4.90;1.10;;;15.70;99.90;;;;;;5048365;28;20383;-85
2022/12/17 13:41:32;;;;;;;3.22;1.10;;;15.70;99.90;;;;;;5032638;28;20399;-81
2022/12/17 13:44:28;;;;;;;4.68;1.17;;;15.60;99.90;;;;;;5050614;28;20368;-83
2022/12/17 13:46:56;;;;;;;5.10;1.30;;;15.60;99.90;;;;;;5034441;28;20972;-84
2022/12/17 13:49:28;;;;;;;5.18;1.30;;;15.70;99.90;;;;;;5050760;28;20484;-84
2022/12/17 13:52:15;;;;;;;6.23;1.20;;;15.80;99.90;;;;;;5068516;28;20376;-84
2022/12/17 13:54:42;;;;;;;5.35;1.30;;;15.80;99.90;;;;;;5057175;28;20773;-84
2022/12/17 13:57:14;;;;;;;5.55;1.30;;;15.80;99.90;;;;;;5067560;28;20397;-86
2022/12/17 13:59:49;;;;;;;4.13;1.10;;;15.80;99.90;;;;;;5069318;28;20449;-80
2022/12/17 14:02:27;;;;;;;4.82;1.33;;;15.80;99.90;;;;;;5039447;28;20481;-83
2022/12/17 14:04:57;;;;;;;4.68;1.30;;;15.80;99.90;;;;;;5059330;28;20383;-82
2022/12/17 14:07:26;;;;;;;3.95;1.20;;;15.80;99.90;;;;;;5069466;28;20370;-84
2022/12/17 14:09:55;;;;;;;5.23;1.40;;;15.70;99.90;;;;;;5056098;28;20432;-81
2022/12/17 14:12:24;;;;;;;9.05;1.50;;;15.50;99.90;;;;;;5069185;28;20465;-85
2022/12/17 14:15:01;;;;;;;7.03;1.38;;;15.30;99.90;;;;;;5067646;28;20406;-80
2022/12/17 14:17:41;;;;;;;7.07;1.40;;;15.10;99.90;;;;;;5069273;28;20369;-83
2022/12/17 14:20:13;;;;;;;6.20;1.30;;;14.90;99.90;;;;;;5062601;28;20392;-83
2022/12/17 14:22:50;;;;;;;4.72;1.20;;;14.80;99.90;;;;;;5064052;28;20456;-82
2022/12/17 14:25:25;;;;;;;4.82;1.20;;;14.70;99.90;;;;;;5069367;28;20457;-82
2022/12/17 14:27:57;;;;;;;4.22;1.23;;;14.60;99.90;;;;;;5068426;28;20378;-82
2022/12/17 14:30:38;;;;;;;4.27;1.10;;;14.60;99.90;;;;;;5069377;28;20508;-82
2022/12/17 14:33:34;;;;;;;5.38;1.27;;;14.50;99.90;;;;;;5045850;28;20845;-83
2022/12/17 14:36:24;;;;;;;4.03;1.25;;;14.40;99.90;;;;;;5068143;28;20448;-83
2022/12/17 14:38:58;;;;;;;4.88;1.30;;;14.30;99.90;;;;;;5064616;28;20372;-82
2022/12/17 14:44:26;;;;;;;5.18;1.40;;;14.10;99.90;;;;;;5046690;28;20377;-81
2022/12/17 14:47:26;;;;;;;5.00;1.40;;;14.00;99.90;;;;;;5068482;28;20457;-81
2022/12/17 14:50:22;;;;;;;5.38;1.42;;;14.00;99.90;;;;;;5049241;28;20786;-83
2022/12/17 14:52:54;;;;;;;6.95;1.42;;;14.00;99.90;;;;;;5064424;28;20389;-82
2022/12/17 14:55:29;;;;;;;5.20;1.20;;;14.10;99.90;;;;;;5043848;28;20428;-82
2022/12/17 14:58:11;;;;;;;5.07;1.57;;;14.20;99.90;;;;;;5071604;28;20770;-81
2022/12/17 15:00:41;;;;;;;6.30;1.70;;;14.30;99.90;;;;;;5054864;28;20395;-83
2022/12/17 15:03:16;;;;;;;3.20;1.13;;;14.40;99.90;;;;;;5059944;28;20374;-83
2022/12/17 15:05:45;;;;;;;5.70;1.30;;;14.40;99.90;;;;;;5054831;28;20387;-83
2022/12/17 15:08:12;;;;;;;5.40;1.27;;;14.40;99.90;;;;;;5065508;28;20889;-82
2022/12/17 15:10:39;;;;;;;5.07;1.10;;;14.50;99.90;;;;;;5072975;28;20378;-83
2022/12/17 15:13:07;;;;;;;3.58;1.00;;;14.50;99.90;;;;;;5071893;28;20460;-80
2022/12/17 15:15:34;;;;;;;3.47;1.10;;;14.60;99.90;;;;;;5050940;28;20469;-83
2022/12/17 15:18:01;;;;;;;4.28;1.15;;;14.60;99.90;;;;;;5052232;28;20387;-82
2022/12/17 15:20:28;;;;;;;3.15;1.00;;;14.60;99.90;;;;;;5063063;28;20433;-82
2022/12/17 15:22:55;;;;;;;4.47;1.20;;;14.70;99.90;;;;;;5063313;28;20392;-83
2022/12/17 15:25:22;;;;;;;5.05;1.10;;;14.70;99.90;;;;;;5057724;28;20379;-83
2022/12/17 15:27:49;;;;;;;3.83;1.17;;;14.70;99.90;;;;;;5070542;28;20392;-82
2022/12/17 15:30:17;;;;;;;3.97;1.00;;;14.70;99.90;;;;;;5059661;28;20391;-84
2022/12/17 15:32:45;;;;;;;4.57;1.20;;;14.70;99.90;;;;;;5053177;28;20413;-85
2022/12/17 15:35:13;;;;;;;3.47;1.00;;;14.70;99.90;;;;;;5050554;28;20409;-81
2022/12/17 15:37:40;;;;;;;3.42;1.00;;;14.70;99.90;;;;;;5056161;28;20378;-82
2022/12/17 15:40:10;;;;;;;3.75;1.10;;;14.70;99.90;;;;;;5052993;28;20383;-80
2022/12/17 15:45:23;;;;;;;3.50;0.90;;;14.70;99.90;;;;;;5051974;28;20453;-83
2022/12/17 15:47:50;;;;;;;3.88;0.90;;;14.70;99.90;;;;;;5042385;28;20389;-83
2022/12/17 15:50:17;;;;;;;3.63;1.08;;;14.70;99.90;;;;;;5050931;28;20418;-81
2022/12/17 15:52:44;;;;;;;5.15;1.20;;;14.70;99.90;;;;;;5046891;28;20383;-83
2022/12/17 15:55:12;;;;;;;2.63;0.90;;;14.70;99.90;;;;;;5053151;28;20461;-83
2022/12/17 15:57:39;;;;;;;4.22;1.13;;;14.80;99.90;;;;;;5051596;28;20420;-82
2022/12/17 16:00:06;;;;;;;5.03;1.15;;;14.80;99.90;;;;;;5053651;28;20407;-81
2022/12/17 16:02:33;;;;;;;4.50;1.17;;;14.80;99.90;;;;;;5050700;28;20828;-85
2022/12/17 16:05:00;;;;;;;6.22;1.10;;;14.80;99.90;;;;;;5052934;28;20438;-84
2022/12/17 16:07:27;;;;;;;3.25;1.02;;;14.80;99.90;;;;;;5047168;28;20385;-84
2022/12/17 16:09:54;;;;;;;4.32;1.05;;;14.80;99.90;;;;;;5051774;28;20872;-85
2022/12/17 16:12:21;;;;;;;5.18;1.35;;;14.70;99.90;;;;;;5051963;28;20380;-84
2022/12/17 16:14:48;;;;;;;3.65;1.08;;;14.80;99.90;;;;;;5052462;28;20511;-84
2022/12/17 16:17:15;;;;;;;4.78;1.15;;;14.80;99.90;;;;;;5054109;28;20932;-84
2022/12/17 16:19:43;;;;;;;3.03;1.00;;;14.70;99.90;;;;;;5053836;28;20395;-83
2022/12/17 16:22:10;;;;;;;4.93;1.30;;;14.70;99.90;;;;;;5058287;28;20943;-84
2022/12/17 16:24:37;;;;;;;4.37;1.00;;;14.60;99.90;;;;;;5044210;28;20376;-84
2022/12/17 16:27:04;;;;;;;4.85;1.08;;;14.60;99.90;;;;;;5052856;28;20411;-83
2022/12/17 16:29:31;;;;;;;4.07;1.13;;;14.60;99.90;;;;;;5044869;28;20394;-82
2022/12/17 16:31:59;;;;;;;4.20;1.00;;;14.60;99.90;;;;;;5039375;28;20468;-82
2022/12/17 16:34:26;;;;;;;4.72;1.20;;;14.60;99.90;;;;;;5046582;28;20436;-84
2022/12/17 16:36:53;;;;;;;4.47;1.02;;;14.50;99.90;;;;;;5051373;28;20390;-82
2022/12/17 16:39:20;;;;;;;3.63;1.15;;;14.50;99.90;;;;;;5049247;28;20432;-83
2022/12/17 16:41:47;;;;;;;3.47;1.08;;;14.40;99.90;;;;;;5055199;28;20394;-83
2022/12/17 16:44:15;;;;;;;4.40;1.02;;;14.50;99.90;;;;;;5058503;28;20378;-82
2022/12/17 16:46:43;;;;;;;2.60;0.93;;;14.50;99.90;;;;;;5037634;28;20393;-82
2022/12/17 16:49:22;;;;;;;6.53;1.33;;;14.40;99.90;;;;;;5047339;28;20428;-82
2022/12/17 16:51:51;;;;;;;3.60;1.08;;;14.50;99.90;;;;;;5048080;28;20393;-82
2022/12/17 16:54:20;;;;;;;3.53;1.02;;;14.60;99.90;;;;;;5062775;28;20394;-84
2022/12/17 16:56:48;;;;;;;4.30;1.10;;;14.60;99.90;;;;;;5056927;28;20374;-83
2022/12/17 16:59:16;;;;;;;3.65;1.00;;;14.70;99.90;;;;;;5052523;28;20415;-82
2022/12/17 17:01:46;;;;;;;3.72;0.93;;;14.70;99.90;;;;;;5051553;28;20475;-82
2022/12/17 17:04:16;;;;;;;3.83;0.93;;;14.80;99.90;;;;;;5020864;28;20378;-82
2022/12/17 17:06:46;;;;;;;3.30;0.90;;;14.80;99.90;;;;;;5032021;28;20404;-83
2022/12/17 17:09:15;;;;;;;3.87;0.90;;;14.70;99.90;;;;;;5060036;28;20405;-82
2022/12/17 17:11:42;;;;;;;3.45;0.90;;;14.60;99.90;;;;;;5060004;28;20381;-81
2022/12/17 17:14:09;;;;;;;4.03;0.93;;;14.50;99.90;;;;;;5066650;28;20418;-82
2022/12/17 17:16:37;;;;;;;2.55;0.88;;;14.50;99.90;;;;;;5058081;28;20374;-80
2022/12/17 17:19:05;;;;;;;3.42;1.00;;;14.50;99.90;;;;;;5057607;28;20403;-82
2022/12/17 17:21:38;;;;;;;4.50;1.10;;;14.60;99.90;;;;;;5059410;28;20874;-83
2022/12/17 17:24:16;;;;;;;2.65;0.80;;;14.70;99.90;;;;;;5059099;28;20387;-81
2022/12/17 17:26:43;;;;;;;2.75;0.90;;;14.70;99.90;;;;;;5070204;28;20378;-82
2022/12/17 17:29:10;;;;;;;3.50;0.90;;;14.80;99.90;;;;;;5056346;28;20378;-82
2022/12/17 17:31:38;;;;;;;3.80;1.00;;;14.80;99.90;;;;;;5055155;28;20414;-81
2022/12/17 17:34:13;;;;;;;4.80;0.90;;;14.80;99.90;;;;;;5056932;28;20394;-80
2022/12/17 17:36:41;;;;;;;4.47;0.88;;;14.90;99.90;;;;;;5062876;28;20714;-81
2022/12/17 17:39:08;;;;;;;3.70;0.90;;;14.90;99.90;;;;;;5062757;28;20422;-81
2022/12/17 17:41:36;;;;;;;3.40;0.90;;;14.90;99.90;;;;;;5050534;28;20446;-80
2022/12/17 17:44:07;;;;;;;3.90;1.00;;;15.00;99.90;;;;;;5044993;28;20483;-81
2022/12/17 17:46:35;;;;;;;3.05;0.82;;;14.90;99.90;;;;;;5050406;28;20410;-83
2022/12/17 17:49:05;;;;;;;2.83;0.80;;;15.00;99.90;;;;;;5050835;28;20390;-84
2022/12/17 17:51:35;;;;;;;2.78;1.00;;;14.90;99.90;;;;;;5051660;28;20385;-83
2022/12/17 17:54:03;;;;;;;2.90;0.77;;;14.90;99.90;;;;;;5049719;28;20449;-83
2022/12/17 17:56:33;;;;;;;4.72;1.00;;;14.90;99.90;;;;;;5051270;28;20402;-83
2022/12/17 17:59:10;;;;;;;3.33;1.00;;;14.90;99.90;;;;;;5050639;28;20398;-83
2022/12/17 18:01:42;;;;;;;3.75;0.98;;;14.90;99.90;;;;;;5040056;28;20409;-84
2022/12/17 18:04:12;;;;;;;4.35;1.00;;;14.90;99.90;;;;;;5028221;28;20457;-83
2022/12/17 18:06:41;;;;;;;3.50;0.90;;;14.90;99.90;;;;;;5048630;28;20383;-84
2022/12/17 18:09:09;;;;;;;2.42;0.80;;;14.90;99.90;;;;;;5051174;28;20383;-84
2022/12/17 18:11:38;;;;;;;3.50;1.00;;;14.90;99.90;;;;;;5050567;28;20898;-82
2022/12/17 18:14:07;;;;;;;3.50;1.00;;;14.90;99.90;;;;;;5050182;28;21288;-84
2022/12/17 18:16:40;;;;;;;2.80;0.90;;;14.90;99.90;;;;;;5050456;28;20376;-82
2022/12/17 18:19:18;;;;;;;3.80;1.00;;;14.90;99.90;;;;;;5042789;28;20468;-84
2022/12/17 18:21:46;;;;;;;2.88;0.80;;;14.90;99.90;;;;;;5058601;28;20398;-84
2022/12/17 18:24:21;;;;;;;3.22;1.02;;;14.90;99.90;;;;;;5060427;28;20832;-84
2022/12/17 18:26:50;;;;;;;2.85;0.90;;;14.90;99.90;;;;;;5064146;28;20392;-81
2022/12/17 18:29:19;;;;;;;3.80;0.90;;;14.90;99.90;;;;;;5056325;28;20402;-83
2022/12/17 18:31:46;;;;;;;3.43;0.90;;;14.80;99.90;;;;;;5053866;28;20384;-83
2022/12/17 18:34:15;;;;;;;3.30;0.85;;;14.90;99.90;;;;;;5062736;28;20396;-84
2022/12/17 18:36:44;;;;;;;2.20;0.80;;;14.80;99.90;;;;;;5055190;28;20402;-84
2022/12/17 18:39:14;;;;;;;2.35;0.77;;;14.90;99.90;;;;;;5037337;28;20483;-84
2022/12/17 18:44:28;;;;;;;3.00;1.00;;;14.90;99.90;;;;;;5060350;28;20396;-83
2022/12/17 18:46:55;;;;;;;4.95;1.05;;;14.90;99.90;;;;;;5058373;28;20405;-83
2022/12/17 18:49:25;;;;;;;2.28;0.90;;;14.90;99.90;;;;;;5060010;28;20446;-83
2022/12/17 18:51:53;;;;;;;3.77;1.00;;;14.90;99.90;;;;;;5067288;28;20415;-82
2022/12/17 18:54:22;;;;;;;3.13;0.80;;;14.90;99.90;;;;;;5063438;28;20405;-82
2022/12/17 18:56:50;;;;;;;3.22;0.80;;;14.90;99.90;;;;;;5056001;28;20382;-82
2022/12/17 18:59:20;;;;;;;3.65;1.00;;;14.80;99.90;;;;;;5061123;28;20499;-81
2022/12/17 19:01:48;;;;;;;2.40;0.80;;;14.90;99.90;;;;;;5056412;28;20394;-82
2022/12/17 19:04:18;;;;;;;3.03;0.90;;;15.00;99.90;;;;;;5046385;28;20388;-82
2022/12/17 19:06:47;;;;;;;2.80;0.80;;;15.00;99.90;;;;;;5044434;28;20788;-83
2022/12/17 19:09:21;;;;;;;2.30;0.80;;;14.90;99.90;;;;;;5064363;28;20374;-83
2022/12/17 19:11:50;;;;;;;3.35;1.00;;;14.90;99.90;;;;;;5069114;28;20405;-83
2022/12/17 19:14:20;;;;;;;2.95;0.93;;;14.90;99.90;;;;;;5066585;28;20395;-83
2022/12/17 19:16:48;;;;;;;3.90;0.82;;;14.90;99.90;;;;;;5060031;28;20444;-82
2022/12/17 19:19:16;;;;;;;5.53;1.00;;;14.90;99.90;;;;;;5054832;28;20401;-84
2022/12/17 19:21:43;;;;;;;6.63;1.10;;;14.90;99.90;;;;;;5038384;28;20404;-83
2022/12/17 19:24:13;;;;;;;4.00;0.80;;;14.90;99.90;;;;;;5052321;28;20469;-83
2022/12/17 19:26:41;;;;;;;3.22;0.70;;;14.80;99.90;;;;;;5062056;28;20940;-78
2022/12/17 19:29:09;;;;;;;2.72;0.73;;;14.70;99.90;;;;;;5056449;28;20405;-83
2022/12/17 19:31:36;;;;;;;2.53;0.70;;;14.60;99.90;;;;;;5050648;28;20396;-79
2022/12/17 19:34:06;;;;;;;3.25;0.80;;;14.60;99.90;;;;;;5043203;28;20391;-89
2022/12/17 19:36:34;;;;;;;2.85;0.80;;;14.60;99.90;;;;;;5051603;28;20401;-78
2022/12/17 19:39:05;;;;;;;3.15;0.90;;;14.70;99.90;;;;;;5049367;28;20458;-80
2022/12/17 19:41:32;;;;;;;1.85;0.70;;;14.80;99.90;;;;;;5061942;28;20443;-87
2022/12/17 19:44:04;;;;;;;2.67;0.80;;;14.90;99.90;;;;;;5049182;28;20383;-82
2022/12/17 19:46:32;;;;;;;2.40;0.75;;;15.00;99.90;;;;;;5053461;28;20383;-87
2022/12/17 19:48:59;;;;;;;2.47;0.77;;;15.00;99.90;;;;;;5051302;28;20498;-87
2022/12/17 19:51:28;;;;;;;2.55;0.60;;;15.10;99.90;;;;;;5052922;28;20411;-84
2022/12/17 19:53:55;;;;;;;2.78;0.80;;;15.30;99.90;;;;;;5051268;28;20387;-86
2022/12/17 19:56:24;;;;;;;2.63;0.80;;;15.40;99.90;;;;;;5040909;28;20393;-88
2022/12/17 19:59:03;;;;;;;1.65;0.70;;;15.60;99.90;;;;;;5051994;28;20905;-85
2022/12/17 20:01:31;;;;;;;3.15;0.80;;;15.70;99.90;;;;;;5053770;28;20403;-81
2022/12/17 20:03:59;;;;;;;6.35;2.30;;;15.80;99.90;;;;;;5055073;28;20473;-87
2022/12/17 20:06:28;;;;;;;3.17;0.95;;;15.80;99.90;;;;;;5047386;28;20410;-85
2022/12/17 20:08:57;;;;;;;2.30;0.77;;;15.80;99.90;;;;;;5062683;28;20390;-88
2022/12/17 20:11:33;;;;;;;3.28;0.80;;;15.80;99.90;;;;;;5061428;28;20890;-80
2022/12/17 20:14:07;;;;;;;2.10;0.70;;;15.70;99.90;;;;;;5052319;28;20870;-85
2022/12/17 20:16:37;;;;;;;2.53;0.85;;;15.60;99.90;;;;;;5052672;28;20398;-85
2022/12/17 20:19:07;;;;;;;2.25;0.85;;;15.60;99.90;;;;;;5039749;28;20399;-88
2022/12/17 20:21:34;;;;;;;3.28;0.80;;;15.60;99.90;;;;;;5055244;28;20479;-85
2022/12/17 20:24:01;;;;;;;2.80;0.70;;;15.60;99.90;;;;;;5053179;28;20437;-87
2022/12/17 20:26:28;;;;;;;3.58;0.90;;;15.70;99.90;;;;;;5062905;28;20389;-85
2022/12/17 20:28:55;;;;;;;2.88;0.90;;;15.80;99.90;;;;;;5056824;28;20449;-86
2022/12/17 20:31:22;;;;;;;1.75;0.70;;;15.90;99.90;;;;;;5058640;28;20784;-81
2022/12/17 20:33:49;;;;;;;4.30;0.82;;;16.00;99.90;;;;;;5062074;28;20440;-82
2022/12/17 20:36:18;;;;;;;3.80;0.80;;;16.00;99.90;;;;;;5049274;28;20382;-78
2022/12/17 20:38:45;;;;;;;2.53;0.77;;;16.00;99.90;;;;;;5061413;28;20740;-83
2022/12/17 20:41:20;;;;;;;2.05;0.77;;;16.00;99.90;;;;;;5051757;28;20468;-80
2022/12/17 20:43:50;;;;;;;3.20;0.60;;;16.20;99.90;;;;;;5057702;28;20391;-81
2022/12/17 20:46:19;;;;;;;3.47;0.82;;;16.30;99.90;;;;;;5050362;28;20402;-84
2022/12/17 20:48:46;;;;;;;2.30;0.80;;;16.30;99.90;;;;;;5046309;28;20388;-84
2022/12/17 20:51:17;;;;;;;2.22;0.70;;;16.50;99.90;;;;;;5055451;28;20388;-84
2022/12/17 20:53:45;;;;;;;2.03;0.52;;;16.70;99.90;;;;;;5039395;28;20407;-80
2022/12/17 20:56:18;;;;;;;1.35;0.50;;;16.60;99.90;;;;;;5040756;28;20505;-78
2022/12/17 20:58:45;;;;;;;2.28;0.80;;;16.80;99.90;;;;;;5049329;28;20467;-78
2022/12/17 21:01:18;;;;;;;2.10;0.60;;;16.70;99.90;;;;;;5052154;28;20402;-82
2022/12/17 21:03:46;;;;;;;2.63;0.60;;;16.70;99.90;;;;;;5064200;28;20389;-83
2022/12/17 21:06:22;;;;;;;2.33;0.70;;;16.70;99.90;;;;;;5054831;28;21835;-78
2022/12/17 21:08:50;;;;;;;1.40;0.65;;;16.80;99.90;;;;;;5062036;28;20374;-78
2022/12/17 21:11:22;;;;;;;1.30;0.60;;;16.90;99.90;;;;;;5058367;28;20409;-78
2022/12/17 21:13:49;;;;;;;2.05;0.63;;;17.00;99.90;;;;;;5065124;28;20863;-79
2022/12/17 21:16:19;;;;;;;2.25;0.60;;;17.30;99.90;;;;;;5065376;28;20450;-84
2022/12/17 21:18:46;;;;;;;2.10;0.60;;;17.50;99.90;;;;;;5063071;28;20813;-82
2022/12/17 21:21:19;;;;;;;1.58;0.50;;;17.50;99.90;;;;;;5051992;28;20901;-80
2022/12/17 21:23:47;;;;;;;2.08;0.50;;;17.50;99.90;;;;;;5069702;28;20381;-81
2022/12/17 21:26:20;;;;;;;0.82;0.30;;;17.60;99.90;;;;;;5055128;28;20385;-83
2022/12/17 21:28:49;;;;;;;1.38;0.30;;;17.60;99.90;;;;;;5064609;28;20870;-83
2022/12/17 21:31:30;;;;;;;1.50;0.40;;;18.10;99.90;;;;;;5064546;28;20494;-83
2022/12/17 21:34:00;;;;;;;1.42;0.30;;;18.50;99.90;;;;;;5062498;28;20763;-85
2022/12/17 21:36:28;;;;;;;0.90;0.40;;;18.70;99.50;;;;;;5060211;28;20382;-82
2022/12/17 21:38:55;;;;;;;0.90;0.30;;;18.60;98.90;;;;;;5060830;28;20372;-90
2022/12/17 21:41:25;;;;;;;1.50;0.30;;;18.50;99.20;;;;;;5061990;28;20869;-85
2022/12/17 21:43:57;;;;;;;1.60;0.20;;;18.60;98.90;;;;;;5051500;28;20387;-80
2022/12/17 21:46:26;;;;;;;1.40;0.30;;;18.80;98.30;;;;;;5050706;28;20442;-84
2022/12/17 21:48:53;;;;;;;2.60;0.28;;;19.00;98.50;;;;;;5044154;28;20379;-85
2022/12/17 21:51:21;;;;;;;1.02;0.20;;;18.90;98.30;;;;;;5069736;28;20386;-81
2022/12/17 21:53:53;;;;;;;0.50;0.20;;;19.10;97.80;;;;;;5045009;28;20370;-81
2022/12/17 21:56:21;;;;;;;0.95;0.25;;;19.10;97.40;;;;;;5057276;28;20392;-82
2022/12/17 21:58:49;;;;;;;1.25;0.30;;;19.30;97.00;;;;;;5070002;28;20385;-82
2022/12/17 22:01:24;;;;;;;0.60;0.20;;;19.10;97.10;;;;;;5068978;28;20382;-83
2022/12/17 22:03:53;;;;;;;0.50;0.20;;;19.20;97.20;;;;;;5069820;28;20400;-82
2022/12/17 22:06:22;;;;;;;1.02;0.30;;;19.40;96.40;;;;;;5068413;28;20432;-84
2022/12/17 22:08:49;;;;;;;1.20;0.40;;;19.60;96.00;;;;;;5069426;28;20380;-82
2022/12/17 22:11:18;;;;;;;0.95;0.30;;;19.60;96.10;;;;;;5055069;28;20424;-85
2022/12/17 22:14:02;;;;;;;1.52;0.30;;;19.70;95.70;;;;;;5064571;28;20734;-82
2022/12/17 22:16:30;;;;;;;1.60;0.30;;;20.00;95.70;;;;;;5038520;28;20391;-82
2022/12/17 22:18:58;;;;;;;0.38;0.20;;;20.20;95.50;;;;;;5062661;28;20425;-83
2022/12/17 22:21:26;;;;;;;0.43;0.30;;;20.10;94.70;;;;;;5069767;28;20374;-84
2022/12/17 22:23:53;;;;;;;1.40;0.30;;;20.20;94.70;;;;;;5067703;28;20373;-84
2022/12/17 22:26:20;;;;;;;0.83;0.30;;;19.70;95.20;;;;;;5060212;28;20387;-84
2022/12/17 22:28:48;;;;;;;1.00;0.40;;;19.60;95.40;;;;;;5050169;28;20803;-83
2022/12/17 22:34:05;;;;;;;1.65;0.40;;;20.10;95.20;;;;;;5044519;28;20403;-88
2022/12/17 22:36:33;;;;;;;1.17;0.27;;;20.30;94.80;;;;;;5061077;28;20888;-84
2022/12/17 22:39:01;;;;;;;1.08;0.20;;;20.40;94.60;;;;;;5055054;28;20379;-88
2022/12/17 22:44:14;;;;;;;1.33;0.35;;;20.50;93.60;;;;;;5047410;28;20382;-80
2022/12/17 22:46:41;;;;;;;1.20;0.40;;;20.30;94.10;;;;;;5053919;28;20442;-86
2022/12/17 22:49:09;;;;;;;0.35;0.30;;;20.10;94.20;;;;;;5045861;28;20385;-84
2022/12/17 22:51:36;;;;;;;0.93;0.30;;;20.00;94.80;;;;;;5055257;28;20394;-82
2022/12/17 22:54:04;;;;;;;0.88;0.30;;;20.10;94.50;;;;;;5061908;28;20482;-78
2022/12/17 22:56:33;;;;;;;1.20;0.30;;;20.20;94.10;;;;;;5065887;28;20386;-84
2022/12/17 22:59:00;;;;;;;1.80;0.47;;;20.20;94.20;;;;;;5069817;28;20865;-78
2022/12/17 23:01:27;;;;;;;1.40;0.40;;;20.30;93.60;;;;;;5069287;28;20404;-80
2022/12/17 23:03:58;;;;;;;2.30;0.45;;;20.50;93.50;;;;;;5055859;28;20453;-76
2022/12/17 23:06:26;;;;;;;1.15;0.40;;;20.70;93.20;;;;;;5044039;28;20397;-81
2022/12/17 23:08:54;;;;;;;3.00;1.10;;;20.90;92.40;;;;;;5058345;28;20368;-75
2022/12/17 23:11:24;;;;;;;0.95;0.40;;;20.70;92.70;;;;;;5049549;28;20474;-79
2022/12/17 23:13:52;;;;;;;1.65;0.50;;;20.30;92.70;;;;;;5049612;28;20430;-78
2022/12/17 23:16:19;;;;;;;1.83;0.70;;;20.10;93.20;;;;;;5047472;28;20476;-78
2022/12/17 23:18:47;;;;;;;1.33;0.65;;;20.10;93.20;;;;;;5069831;28;20370;-82
2022/12/17 23:21:18;;;;;;;1.20;0.38;;;20.30;92.80;;;;;;5063629;28;20394;-81
2022/12/17 23:23:45;;;;;;;0.45;0.20;;;20.60;92.40;;;;;;5059926;28;20524;-76
2022/12/17 23:26:22;;;;;;;2.38;0.40;;;20.80;92.20;;;;;;5058777;28;20378;-77
2022/12/17 23:28:53;;;;;;;0.57;0.20;;;21.00;91.70;;;;;;5053530;28;20413;-83
2022/12/17 23:31:21;;;;;;;5.97;1.13;;;21.40;91.10;;;;;;5054939;28;20749;-78
2022/12/17 23:33:48;;;;;;;15.68;1.27;;;21.60;91.20;;;;;;5071595;28;20880;-81
2022/12/17 23:36:20;;;;;;;1.15;0.30;;;21.80;90.60;;;;;;5063298;28;20459;-84
2022/12/17 23:38:48;;;;;;;0.35;0.20;;;21.70;90.30;;;;;;5044977;28;20404;-78
2022/12/17 23:41:18;;;;;;;0.63;0.20;;;21.70;90.10;;;;;;5062200;28;20428;-83
2022/12/17 23:43:46;;;;;;;0.50;0.20;;;21.80;90.40;;;;;;5054200;28;20450;-80
2022/12/17 23:46:13;;;;;;;0.20;0.20;;;22.30;89.10;;;;;;5052849;28;20739;-79
2022/12/17 23:48:42;;;;;;;1.43;0.30;;;22.30;88.40;;;;;;5047055;28;20379;-81
2022/12/17 23:51:11;;;;;;;0.43;0.30;;;22.20;88.30;;;;;;5052924;28;20779;-79
2022/12/17 23:53:38;;;;;;;0.52;0.20;;;22.00;89.10;;;;;;5069144;28;20425;-77
2022/12/17 23:56:10;;;;;;;3.72;0.47;;;21.90;89.00;;;;;;5054898;28;20443;-77
2022/12/17 23:58:38;;;;;;;0.13;0.10;;;21.50;89.90;;;;;;5046787;28;20516;-77
